Time;durP1;ratioP1;P1;durP2;ratioP2;P2;SDS_P1;SDS_P2;PMS_P1;PMS_P2;Temp;Humidity;BMP_temperature;BMP_pressure;BME280_temperature;BME280_humidity;BME280_pressure;Samples;Min_cycle;Max_cycle;Signal;HPM_P1;HPM_P2
2022/12/31 00:01:05;;;;;;;;;;;21.10;53.40;;;;;;6273708;22;43356;-70
2022/12/31 00:03:32;;;;;;;;;;;21.10;53.50;;;;;;6245760;22;43550;-71
2022/12/31 00:06:00;;;;;;;;;;;21.10;53.50;;;;;;6273202;22;43696;-70
2022/12/31 00:08:27;;;;;;;;;;;21.10;53.50;;;;;;6273127;22;43774;-70
2022/12/31 00:10:55;;;;;;;;;;;21.00;53.50;;;;;;6274462;22;43350;-71
2022/12/31 00:13:22;;;;;;;;;;;21.00;53.50;;;;;;6246382;22;43419;-70
2022/12/31 00:15:49;;;;;;;;;;;21.00;53.50;;;;;;6245496;22;43905;-71
2022/12/31 00:18:16;;;;;;;;;;;21.00;53.50;;;;;;6273245;22;43368;-71
2022/12/31 00:20:44;;;;;;;;;;;21.00;53.50;;;;;;6273762;22;43390;-71
2022/12/31 00:23:11;;;;;;;;;;;21.00;53.50;;;;;;6273075;22;43407;-71
2022/12/31 00:25:38;;;;;;;;;;;21.00;53.60;;;;;;6273196;22;44914;-71
2022/12/31 00:28:06;;;;;;;;;;;21.00;53.60;;;;;;6273232;22;43483;-70
2022/12/31 00:30:33;;;;;;;;;;;21.00;53.60;;;;;;6245512;22;43478;-71
2022/12/31 00:33:00;;;;;;;;;;;21.00;53.60;;;;;;6272499;22;43451;-70
2022/12/31 00:35:28;;;;;;;;;;;21.00;53.60;;;;;;6274741;22;44009;-71
2022/12/31 00:37:55;;;;;;;;;;;21.00;53.60;;;;;;6274203;22;43447;-71
2022/12/31 00:40:23;;;;;;;;;;;21.00;53.60;;;;;;6274444;22;43356;-71
2022/12/31 00:42:50;;;;;;;;;;;21.00;53.70;;;;;;6274751;22;43427;-71
2022/12/31 00:45:17;;;;;;;;;;;20.90;53.70;;;;;;6273971;22;44897;-70
2022/12/31 00:47:45;;;;;;;;;;;20.90;53.60;;;;;;6274723;22;43396;-71
2022/12/31 00:50:12;;;;;;;;;;;20.90;53.70;;;;;;6274816;22;43389;-71
2022/12/31 00:52:39;;;;;;;;;;;20.90;53.70;;;;;;6274333;22;43462;-71
2022/12/31 00:55:07;;;;;;;;;;;20.90;53.70;;;;;;6273782;22;43752;-70
2022/12/31 00:57:34;;;;;;;;;;;20.90;53.70;;;;;;6274524;22;43419;-70
2022/12/31 01:00:01;;;;;;;;;;;20.90;53.70;;;;;;6248095;22;43425;-71
2022/12/31 01:02:29;;;;;;;;;;;20.90;53.80;;;;;;6274989;22;43541;-70
2022/12/31 01:04:56;;;;;;;;;;;20.90;53.80;;;;;;6274176;22;44757;-71
2022/12/31 01:07:24;;;;;;;;;;;20.90;53.80;;;;;;6274542;22;43546;-70
2022/12/31 01:09:52;;;;;;;;;;;20.90;54.40;;;;;;6274808;22;43449;-71
2022/12/31 01:12:21;;;;;;;;;;;20.90;53.80;;;;;;6273625;22;43567;-70
2022/12/31 01:14:48;;;;;;;;;;;20.90;53.80;;;;;;6274074;22;46048;-71
2022/12/31 01:17:16;;;;;;;;;;;20.80;53.80;;;;;;6273969;22;43412;-71
2022/12/31 01:19:43;;;;;;;;;;;20.80;53.90;;;;;;6273796;22;43383;-71
2022/12/31 01:22:10;;;;;;;;;;;20.80;53.90;;;;;;6274627;22;43509;-71
2022/12/31 01:24:38;;;;;;;;;;;20.80;53.90;;;;;;6274289;22;44151;-71
2022/12/31 01:27:06;;;;;;;;;;;20.80;53.90;;;;;;6273255;22;43399;-71
2022/12/31 01:29:33;;;;;;;;;;;20.80;53.90;;;;;;6274872;22;43450;-71
2022/12/31 01:32:00;;;;;;;;;;;20.80;53.90;;;;;;6274567;22;43482;-71
2022/12/31 01:34:28;;;;;;;;;;;20.80;53.90;;;;;;6273823;22;45112;-71
2022/12/31 01:36:55;;;;;;;;;;;20.80;54.00;;;;;;6274490;22;43421;-71
2022/12/31 01:39:22;;;;;;;;;;;20.80;54.00;;;;;;6274730;22;43367;-70
2022/12/31 01:41:50;;;;;;;;;;;20.80;54.00;;;;;;6273664;22;43411;-71
2022/12/31 01:44:26;;;;;;;;;;;20.80;54.00;;;;;;6274280;22;43696;-71
2022/12/31 01:46:55;;;;;;;;;;;20.70;54.00;;;;;;6272915;22;43460;-71
2022/12/31 01:49:26;;;;;;;;;;;20.70;54.00;;;;;;6274552;22;43441;-71
2022/12/31 01:51:56;;;;;;;;;;;20.70;54.00;;;;;;6274509;22;43367;-71
2022/12/31 01:54:24;;;;;;;;;;;20.70;54.00;;;;;;6273602;22;43945;-71
2022/12/31 01:56:52;;;;;;;;;;;20.70;54.00;;;;;;6274013;22;43486;-71
2022/12/31 01:59:20;;;;;;;;;;;20.70;54.10;;;;;;6274159;22;43494;-71
2022/12/31 02:01:54;;;;;;;;;;;20.70;54.00;;;;;;6273441;22;43550;-71
2022/12/31 02:04:22;;;;;;;;;;;20.70;54.10;;;;;;6274227;22;43754;-71
2022/12/31 02:06:55;;;;;;;;;;;20.70;54.10;;;;;;6273824;22;43381;-71
2022/12/31 02:09:22;;;;;;;;;;;20.70;54.10;;;;;;6246010;22;43440;-71
2022/12/31 02:11:50;;;;;;;;;;;20.70;54.10;;;;;;6273932;22;43679;-71
2022/12/31 02:14:19;;;;;;;;;;;20.70;54.10;;;;;;6274342;22;44661;-71
2022/12/31 02:16:59;;;;;;;;;;;20.70;54.10;;;;;;6272765;22;43507;-70
2022/12/31 02:19:26;;;;;;;;;;;20.70;54.10;;;;;;6274643;22;43322;-71
2022/12/31 02:21:56;;;;;;;;;;;20.70;54.10;;;;;;6274345;22;43476;-71
2022/12/31 02:24:33;;;;;;;;;;;20.70;54.20;;;;;;6273429;22;43749;-71
2022/12/31 02:27:06;;;;;;;;;;;20.70;54.20;;;;;;6274153;22;43457;-71
2022/12/31 02:29:58;;;;;;;;;;;20.60;54.20;;;;;;6273873;22;43434;-71
2022/12/31 02:32:29;;;;;;;;;;;20.60;54.20;;;;;;6274859;22;43380;-71
2022/12/31 02:35:00;;;;;;;;;;;20.60;54.20;;;;;;6273881;22;43857;-71
2022/12/31 02:37:29;;;;;;;;;;;20.60;54.20;;;;;;6273816;22;43424;-71
2022/12/31 02:39:57;;;;;;;;;;;20.60;54.20;;;;;;6247341;22;43405;-71
2022/12/31 02:42:24;;;;;;;;;;;20.60;54.20;;;;;;6274204;22;43526;-71
2022/12/31 02:44:52;;;;;;;;;;;20.60;54.20;;;;;;6272850;22;44737;-71
2022/12/31 02:47:25;;;;;;;;;;;20.60;54.30;;;;;;6273940;22;43404;-71
2022/12/31 02:50:11;;;;;;;;;;;20.60;54.90;;;;;;6274820;22;43402;-71
2022/12/31 02:52:55;;;;;;;;;;;20.60;54.40;;;;;;6273724;22;43407;-71
2022/12/31 02:55:22;;;;;;;;;;;20.50;54.30;;;;;;6273717;22;44863;-71
2022/12/31 02:58:08;;;;;;;;;;;20.50;54.30;;;;;;6271189;22;43408;-71
2022/12/31 03:03:26;;;;;;;;;;;20.60;54.40;;;;;;6274813;22;43515;-71
2022/12/31 03:05:54;;;;;;;;;;;20.50;54.40;;;;;;6273283;22;43767;-71
2022/12/31 03:08:22;;;;;;;;;;;20.50;54.40;;;;;;6273964;22;43850;-71
2022/12/31 03:10:50;;;;;;;;;;;20.50;54.40;;;;;;6273670;22;43411;-71
2022/12/31 03:13:18;;;;;;;;;;;20.50;54.40;;;;;;6273422;22;43462;-71
2022/12/31 03:15:47;;;;;;;;;;;20.50;54.50;;;;;;6273759;22;44008;-70
2022/12/31 03:18:15;;;;;;;;;;;20.50;54.50;;;;;;6273702;22;43465;-71
2022/12/31 03:23:38;;;;;;;;;;;20.50;54.60;;;;;;6274066;22;43498;-71
2022/12/31 03:26:09;;;;;;;;;;;20.50;54.60;;;;;;6245749;22;43884;-71
2022/12/31 03:28:41;;;;;;;;;;;20.50;54.50;;;;;;6274454;22;43400;-71
2022/12/31 03:31:08;;;;;;;;;;;20.50;54.50;;;;;;6274175;22;43384;-71
2022/12/31 03:33:37;;;;;;;;;;;20.50;54.50;;;;;;6272959;22;43453;-71
2022/12/31 03:36:06;;;;;;;;;;;20.40;54.50;;;;;;6273343;22;44009;-71
2022/12/31 03:38:34;;;;;;;;;;;20.50;54.60;;;;;;6273860;22;43523;-71
2022/12/31 03:41:01;;;;;;;;;;;20.40;54.60;;;;;;6273366;22;43411;-71
2022/12/31 03:43:29;;;;;;;;;;;20.40;54.50;;;;;;6274544;22;43382;-71
2022/12/31 03:45:58;;;;;;;;;;;20.40;54.60;;;;;;6274444;22;43762;-71
2022/12/31 03:48:25;;;;;;;;;;;20.40;54.50;;;;;;6273130;22;44222;-71
2022/12/31 03:50:53;;;;;;;;;;;20.40;54.50;;;;;;6274099;22;43437;-71
2022/12/31 03:53:21;;;;;;;;;;;20.40;54.90;;;;;;6274169;22;43440;-70
2022/12/31 03:55:52;;;;;;;;;;;20.40;54.50;;;;;;6273085;22;43947;-71
2022/12/31 03:58:19;;;;;;;;;;;20.40;54.50;;;;;;6274550;22;43365;-71
2022/12/31 04:00:47;;;;;;;;;;;20.40;54.50;;;;;;6273417;22;43292;-70
2022/12/31 04:03:14;;;;;;;;;;;20.40;54.50;;;;;;6273882;22;43447;-71
2022/12/31 04:05:42;;;;;;;;;;;20.40;54.50;;;;;;6273694;22;43872;-71
2022/12/31 04:08:09;;;;;;;;;;;20.40;54.50;;;;;;6272516;22;43360;-71
2022/12/31 04:10:36;;;;;;;;;;;20.30;54.50;;;;;;6273858;22;43438;-71
2022/12/31 04:13:04;;;;;;;;;;;20.30;54.50;;;;;;6273648;22;43592;-71
2022/12/31 04:15:31;;;;;;;;;;;20.30;55.20;;;;;;6272724;22;43814;-70
2022/12/31 04:17:58;;;;;;;;;;;20.30;54.50;;;;;;6273585;22;43439;-71
2022/12/31 04:20:26;;;;;;;;;;;20.30;54.50;;;;;;6274064;22;43359;-71
2022/12/31 04:22:53;;;;;;;;;;;20.30;54.50;;;;;;6273157;22;43695;-71
2022/12/31 04:25:20;;;;;;;;;;;20.30;54.50;;;;;;6273388;22;43686;-71
2022/12/31 04:27:48;;;;;;;;;;;20.30;54.50;;;;;;6273353;22;43569;-71
2022/12/31 04:30:15;;;;;;;;;;;20.30;54.50;;;;;;6272848;22;43944;-70
2022/12/31 04:32:42;;;;;;;;;;;20.30;55.20;;;;;;6246630;22;43407;-71
2022/12/31 04:35:11;;;;;;;;;;;20.30;54.60;;;;;;6273282;22;44023;-71
2022/12/31 04:37:39;;;;;;;;;;;20.30;54.60;;;;;;6272511;22;43445;-71
2022/12/31 04:40:07;;;;;;;;;;;20.30;54.60;;;;;;6273608;22;43453;-71
2022/12/31 04:42:35;;;;;;;;;;;20.30;54.60;;;;;;6273652;22;43635;-71
2022/12/31 04:45:03;;;;;;;;;;;20.30;54.60;;;;;;6272621;22;43570;-71
2022/12/31 04:47:30;;;;;;;;;;;20.30;54.60;;;;;;6273149;22;43988;-71
2022/12/31 04:49:58;;;;;;;;;;;20.30;54.60;;;;;;6272955;22;43404;-71
2022/12/31 04:52:25;;;;;;;;;;;20.20;54.60;;;;;;6273669;22;43477;-71
2022/12/31 04:54:52;;;;;;;;;;;20.20;54.60;;;;;;6273198;22;43778;-71
2022/12/31 04:57:20;;;;;;;;;;;20.20;54.60;;;;;;6272231;22;43438;-71
2022/12/31 04:59:47;;;;;;;;;;;20.20;54.60;;;;;;6273017;22;43340;-71
2022/12/31 05:02:15;;;;;;;;;;;20.20;54.60;;;;;;6273668;22;43413;-71
2022/12/31 05:04:43;;;;;;;;;;;20.20;54.70;;;;;;6272609;22;44655;-70
2022/12/31 05:07:10;;;;;;;;;;;20.20;54.60;;;;;;6272475;22;43427;-71
2022/12/31 05:09:38;;;;;;;;;;;20.20;54.60;;;;;;6273324;22;43348;-71
2022/12/31 05:12:06;;;;;;;;;;;20.20;54.60;;;;;;6272376;22;43439;-71
2022/12/31 05:14:33;;;;;;;;;;;20.20;54.70;;;;;;6272675;22;44927;-71
2022/12/31 05:17:00;;;;;;;;;;;20.20;54.70;;;;;;6239780;22;43428;-71
2022/12/31 05:19:28;;;;;;;;;;;20.10;54.70;;;;;;6242308;22;43359;-71
2022/12/31 05:24:41;;;;;;;;;;;20.20;54.70;;;;;;6244038;22;43756;-71
2022/12/31 05:27:09;;;;;;;;;;;20.10;54.70;;;;;;6242325;22;43439;-71
2022/12/31 05:29:36;;;;;;;;;;;20.10;54.70;;;;;;6244225;22;43363;-71
2022/12/31 05:32:04;;;;;;;;;;;20.10;54.80;;;;;;6243164;22;43421;-71
2022/12/31 05:34:31;;;;;;;;;;;20.10;54.80;;;;;;6243670;22;44833;-71
2022/12/31 05:36:59;;;;;;;;;;;20.10;54.80;;;;;;6243505;22;43946;-71
2022/12/31 05:39:26;;;;;;;;;;;20.10;54.80;;;;;;6242948;22;43389;-71
2022/12/31 05:41:54;;;;;;;;;;;20.10;54.80;;;;;;6243513;22;43456;-71
2022/12/31 05:44:21;;;;;;;;;;;20.10;54.80;;;;;;6243676;22;44711;-71
2022/12/31 05:46:48;;;;;;;;;;;20.10;54.80;;;;;;6242493;22;43484;-71
2022/12/31 05:49:16;;;;;;;;;;;20.10;55.40;;;;;;6242175;22;43379;-71
2022/12/31 05:51:44;;;;;;;;;;;20.10;54.80;;;;;;6243651;22;43425;-71
2022/12/31 05:54:12;;;;;;;;;;;20.10;54.80;;;;;;6242852;22;44014;-71
2022/12/31 05:56:39;;;;;;;;;;;20.10;54.80;;;;;;6243009;22;43473;-71
2022/12/31 05:59:06;;;;;;;;;;;20.10;55.40;;;;;;6241564;22;43385;-71
2022/12/31 06:01:33;;;;;;;;;;;20.10;54.80;;;;;;6242664;22;43596;-71
2022/12/31 06:04:01;;;;;;;;;;;20.10;54.80;;;;;;6241275;22;43899;-71
2022/12/31 06:06:28;;;;;;;;;;;20.10;54.80;;;;;;6243517;22;43400;-72
2022/12/31 06:08:56;;;;;;;;;;;20.10;54.80;;;;;;6243173;22;43439;-72
2022/12/31 06:11:23;;;;;;;;;;;20.00;54.80;;;;;;6243441;22;43596;-72
2022/12/31 06:13:50;;;;;;;;;;;20.10;54.80;;;;;;6241717;22;43897;-73
2022/12/31 06:16:18;;;;;;;;;;;20.10;54.80;;;;;;6242662;22;43392;-72
2022/12/31 06:18:49;;;;;;;;;;;20.10;54.80;;;;;;6274113;22;43355;-74
2022/12/31 06:21:17;;;;;;;;;;;20.10;54.80;;;;;;6273405;22;43477;-74
2022/12/31 06:23:44;;;;;;;;;;;20.10;54.80;;;;;;6273994;22;45072;-74
2022/12/31 06:26:12;;;;;;;;;;;20.10;54.70;;;;;;6246001;22;44728;-74
2022/12/31 06:28:39;;;;;;;;;;;20.10;54.80;;;;;;6273420;22;43435;-74
2022/12/31 06:31:07;;;;;;;;;;;20.00;54.70;;;;;;6273709;22;43408;-73
2022/12/31 06:33:35;;;;;;;;;;;20.10;54.70;;;;;;6273600;22;43769;-74
2022/12/31 06:36:04;;;;;;;;;;;20.10;54.70;;;;;;6273508;22;43344;-74
2022/12/31 06:38:32;;;;;;;;;;;20.00;54.70;;;;;;6273668;22;43420;-73
2022/12/31 06:41:06;;;;;;;;;;;20.00;54.70;;;;;;6274318;22;43946;-74
2022/12/31 06:43:34;;;;;;;;;;;20.00;54.70;;;;;;6245831;22;44143;-74
2022/12/31 06:46:02;;;;;;;;;;;20.00;54.60;;;;;;6274052;22;44913;-73
2022/12/31 06:48:30;;;;;;;;;;;20.00;54.60;;;;;;6273905;22;43489;-67
2022/12/31 06:51:08;;;;;;;;;;;20.00;54.70;;;;;;6273566;22;43418;-74
2022/12/31 06:53:43;;;;;;;;;;;20.00;54.70;;;;;;6274157;22;43976;-75
2022/12/31 06:56:15;;;;;;;;;;;20.00;54.80;;;;;;6273322;22;43375;-74
2022/12/31 06:58:42;;;;;;;;;;;20.00;54.80;;;;;;6273878;22;43431;-75
2022/12/31 07:01:26;;;;;;;;;;;20.00;54.80;;;;;;6273848;22;43421;-76
2022/12/31 07:03:54;;;;;;;;;;;20.00;54.80;;;;;;6275172;22;44011;-75
2022/12/31 07:06:38;;;;;;;;;;;20.00;54.80;;;;;;6274540;22;43441;-74
2022/12/31 07:09:28;;;;;;;;;;;20.00;54.80;;;;;;6274237;22;43438;-74
2022/12/31 07:12:05;;;;;;;;;;;20.00;54.80;;;;;;6258672;22;43527;-74
2022/12/31 07:14:32;;;;;;;;;;;20.00;54.70;;;;;;6273367;22;43689;-74
2022/12/31 07:17:05;;;;;;;;;;;20.00;54.70;;;;;;6273099;22;43351;-74
2022/12/31 07:19:38;;;;;;;;;;;20.00;54.70;;;;;;6273452;22;43442;-75
2022/12/31 07:22:08;;;;;;;;;;;20.00;54.60;;;;;;6274179;22;43958;-75
2022/12/31 07:24:36;;;;;;;;;;;20.00;54.60;;;;;;6273231;22;43713;-75
2022/12/31 07:27:03;;;;;;;;;;;20.00;54.70;;;;;;6273069;22;43446;-75
2022/12/31 07:29:50;;;;;;;;;;;20.00;54.60;;;;;;6274277;22;43456;-75
2022/12/31 07:32:18;;;;;;;;;;;20.00;54.60;;;;;;6273232;22;43406;-75
2022/12/31 07:34:45;;;;;;;;;;;20.00;54.60;;;;;;6246462;22;44021;-75
2022/12/31 07:37:20;;;;;;;;;;;20.00;54.60;;;;;;6271536;22;43423;-69
2022/12/31 07:39:47;;;;;;;;;;;20.00;54.60;;;;;;6272510;22;43311;-74
2022/12/31 07:42:22;;;;;;;;;;;19.90;54.60;;;;;;6273487;22;43557;-74
2022/12/31 07:44:53;;;;;;;;;;;19.90;54.70;;;;;;6273555;22;43771;-76
2022/12/31 07:47:24;;;;;;;;;;;19.90;54.70;;;;;;6272225;22;43414;-75
2022/12/31 07:49:52;;;;;;;;;;;19.90;54.80;;;;;;6249951;22;43447;-77
2022/12/31 07:52:21;;;;;;;;;;;19.90;54.90;;;;;;6275530;22;43665;-76
2022/12/31 07:54:48;;;;;;;;;;;19.90;54.80;;;;;;6274692;22;43837;-73
2022/12/31 07:57:17;;;;;;;;;;;19.90;54.80;;;;;;6247245;22;43502;-74
2022/12/31 08:00:03;;;;;;;;;;;19.90;54.80;;;;;;6274573;22;43387;-73
2022/12/31 08:02:41;;;;;;;;;;;19.90;54.70;;;;;;6273292;22;43532;-74
2022/12/31 08:05:15;;;;;;;;;;;19.90;54.80;;;;;;6275077;22;44018;-74
2022/12/31 08:07:54;;;;;;;;;;;19.90;54.80;;;;;;6245529;22;43477;-74
2022/12/31 08:10:37;;;;;;;;;;;19.90;54.80;;;;;;6275889;22;43383;-74
2022/12/31 08:13:16;;;;;;;;;;;19.90;54.70;;;;;;6249345;22;43419;-76
2022/12/31 08:15:44;;;;;;;;;;;19.90;54.80;;;;;;6273906;22;43749;-74
2022/12/31 08:18:11;;;;;;;;;;;19.90;54.80;;;;;;6240582;22;43469;-74
2022/12/31 08:20:45;;;;;;;;;;;19.90;54.80;;;;;;6241989;22;43386;-74
2022/12/31 08:23:17;;;;;;;;;;;19.90;54.90;;;;;;6242423;22;43559;-77
2022/12/31 08:25:50;;;;;;;;;;;19.90;54.80;;;;;;6243177;22;44088;-76
2022/12/31 08:28:36;;;;;;;;;;;19.90;54.90;;;;;;6242371;22;43402;-61
2022/12/31 08:31:07;;;;;;;;;;;19.90;55.30;;;;;;6242109;22;43419;-73
2022/12/31 08:33:43;;;;;;;;;;;19.80;55.00;;;;;;6243098;22;43683;-73
2022/12/31 08:36:20;;;;;;;;;;;19.90;55.60;;;;;;6240253;22;43965;-73
2022/12/31 08:39:01;;;;;;;;;;;19.80;54.90;;;;;;6241839;22;43459;-73
2022/12/31 08:41:29;;;;;;;;;;;19.80;54.90;;;;;;6243152;22;43366;-73
2022/12/31 08:44:17;;;;;;;;;;;19.80;54.80;;;;;;6242454;22;43821;-73
2022/12/31 08:46:44;;;;;;;;;;;19.80;54.80;;;;;;6240233;22;44348;-71
2022/12/31 08:49:13;;;;;;;;;;;19.80;55.00;;;;;;6237251;22;43376;-71
2022/12/31 08:51:41;;;;;;;;;;;19.80;54.90;;;;;;6241529;22;43408;-71
2022/12/31 08:54:09;;;;;;;;;;;19.90;54.90;;;;;;6241732;22;43537;-71
2022/12/31 08:56:43;;;;;;;;;;;19.90;54.90;;;;;;6241448;22;43563;-71
2022/12/31 08:59:16;;;;;;;;;;;19.90;54.80;;;;;;6243105;22;43417;-71
2022/12/31 09:01:56;;;;;;;;;;;19.90;54.80;;;;;;6242931;22;43967;-72
2022/12/31 09:04:40;;;;;;;;;;;19.90;54.90;;;;;;6242195;22;43429;-71
2022/12/31 09:07:08;;;;;;;;;;;19.90;54.90;;;;;;6215462;22;45240;-71
2022/12/31 09:09:43;;;;;;;;;;;19.90;54.80;;;;;;6242609;22;43405;-71
2022/12/31 09:12:33;;;;;;;;;;;19.90;54.80;;;;;;6242432;22;43386;-71
2022/12/31 09:15:24;;;;;;;;;;;19.90;54.80;;;;;;6198162;22;43971;-71
2022/12/31 09:17:51;;;;;;;;;;;19.90;54.90;;;;;;6212320;22;43769;-72
2022/12/31 09:20:19;;;;;;;;;;;19.90;54.90;;;;;;6242793;22;43867;-71
2022/12/31 09:22:46;;;;;;;;;;;19.90;54.90;;;;;;6243016;22;43423;-71
2022/12/31 09:25:15;;;;;;;;;;;19.90;54.80;;;;;;6242679;22;43420;-71
2022/12/31 09:27:46;;;;;;;;;;;19.90;54.90;;;;;;6242258;22;43984;-71
2022/12/31 09:30:15;;;;;;;;;;;19.90;54.90;;;;;;6243308;22;43343;-71
2022/12/31 09:32:59;;;;;;;;;;;19.90;54.90;;;;;;6241949;22;43418;-71
2022/12/31 09:35:46;;;;;;;;;;;19.80;54.90;;;;;;6243071;22;43529;-71
2022/12/31 09:38:19;;;;;;;;;;;19.80;54.90;;;;;;6240891;22;43992;-71
2022/12/31 09:40:46;;;;;;;;;;;19.90;55.00;;;;;;6243482;22;43458;-71
2022/12/31 09:43:33;;;;;;;;;;;19.90;55.20;;;;;;6243329;22;43452;-71
2022/12/31 09:46:39;;;;;;;;;;;19.90;55.20;;;;;;6242790;22;43584;-71
2022/12/31 09:49:15;;;;;;;;;;;19.90;55.20;;;;;;6178969;23;44006;-71
2022/12/31 09:51:52;;;;;;;;;;;19.90;55.20;;;;;;6179327;23;43436;-71
2022/12/31 09:54:27;;;;;;;;;;;19.90;55.20;;;;;;6218076;22;43326;-71
2022/12/31 09:57:03;;;;;;;;;;;19.80;55.20;;;;;;6239070;22;43978;-71
2022/12/31 09:59:44;;;;;;;;;;;19.90;55.40;;;;;;6242155;22;44898;-74
2022/12/31 10:02:26;;;;;;;;;;;19.90;55.40;;;;;;6242737;22;43739;-74
2022/12/31 10:04:53;;;;;;;;;;;19.90;55.30;;;;;;6243450;22;43486;-74
2022/12/31 10:07:31;;;;;;;;;;;19.80;55.30;;;;;;6241421;22;43431;-75
2022/12/31 10:10:17;;;;;;;;;;;19.90;55.50;;;;;;6243272;22;43757;-75
2022/12/31 10:12:51;;;;;;;;;;;19.90;55.50;;;;;;6243411;22;43457;-76
2022/12/31 10:15:34;;;;;;;;;;;19.90;55.60;;;;;;6243186;22;43869;-74
2022/12/31 10:18:19;;;;;;;;;;;19.90;55.70;;;;;;6265951;22;43411;-76
2022/12/31 10:20:58;;;;;;;;;;;19.80;55.70;;;;;;6273912;22;44884;-76
2022/12/31 10:23:37;;;;;;;;;;;19.80;55.90;;;;;;6274694;22;43768;-74
2022/12/31 10:26:07;;;;;;;;;;;19.80;55.90;;;;;;6274396;22;43396;-71
2022/12/31 10:28:57;;;;;;;;;;;19.90;56.00;;;;;;6273729;22;43412;-71
2022/12/31 10:31:30;;;;;;;;;;;19.80;56.00;;;;;;6274541;22;43743;-71
2022/12/31 10:34:10;;;;;;;;;;;19.90;56.00;;;;;;6274339;22;43868;-72
2022/12/31 10:37:01;;;;;;;;;;;19.90;56.60;;;;;;6273660;22;43429;-73
2022/12/31 10:39:45;;;;;;;;;;;19.90;56.10;;;;;;6274787;22;43482;-72
2022/12/31 10:42:15;;;;;;;;;;;19.90;56.10;;;;;;6273225;22;43782;-72
2022/12/31 10:44:42;;;;;;;;;;;19.90;56.00;;;;;;6274156;22;43428;-73
2022/12/31 10:47:24;;;;;;;;;;;20.00;56.00;;;;;;6273635;22;43384;-72
2022/12/31 10:50:11;;;;;;;;;;;20.00;55.90;;;;;;6273573;22;43837;-71
2022/12/31 10:52:47;;;;;;;;;;;20.00;55.90;;;;;;6274125;22;44089;-71
2022/12/31 10:55:35;;;;;;;;;;;20.00;56.00;;;;;;6273849;22;43601;-72
2022/12/31 10:58:02;;;;;;;;;;;20.00;56.00;;;;;;6211045;22;43580;-72
2022/12/31 11:00:37;;;;;;;;;;;20.00;56.10;;;;;;6246567;22;43423;-72
2022/12/31 11:03:04;;;;;;;;;;;20.00;56.10;;;;;;6245940;22;44107;-73
2022/12/31 11:05:50;;;;;;;;;;;20.00;56.10;;;;;;6273843;22;43460;-72
2022/12/31 11:08:24;;;;;;;;;;;20.00;56.00;;;;;;6273747;22;43416;-72
2022/12/31 11:11:10;;;;;;;;;;;20.10;56.10;;;;;;6273136;22;43487;-71
2022/12/31 11:13:37;;;;;;;;;;;20.10;56.10;;;;;;6273693;22;44678;-72
2022/12/31 11:16:05;;;;;;;;;;;20.10;56.00;;;;;;6273433;22;43326;-72
2022/12/31 11:18:50;;;;;;;;;;;20.10;56.10;;;;;;6272254;22;43433;-71
2022/12/31 11:21:30;;;;;;;;;;;20.10;56.70;;;;;;6274145;22;43428;-72
2022/12/31 11:24:04;;;;;;;;;;;20.10;56.10;;;;;;6272970;22;43917;-71
2022/12/31 11:26:50;;;;;;;;;;;20.10;56.20;;;;;;6246599;22;43424;-71
2022/12/31 11:29:17;;;;;;;;;;;20.10;56.10;;;;;;6273889;22;43319;-71
2022/12/31 11:31:54;;;;;;;;;;;20.10;56.20;;;;;;6273148;22;43569;-71
2022/12/31 11:34:21;;;;;;;;;;;20.20;56.20;;;;;;6271996;22;44334;-71
2022/12/31 11:36:58;;;;;;;;;;;20.20;56.20;;;;;;6273204;22;43428;-71
2022/12/31 11:39:34;;;;;;;;;;;20.20;56.20;;;;;;6273380;22;43381;-71
2022/12/31 11:42:01;;;;;;;;;;;20.20;56.20;;;;;;6273835;22;43445;-71
2022/12/31 11:44:43;;;;;;;;;;;20.20;56.20;;;;;;6274166;22;43704;-71
2022/12/31 11:47:16;;;;;;;;;;;20.20;56.20;;;;;;6273375;22;43436;-72
2022/12/31 11:49:50;;;;;;;;;;;20.20;56.20;;;;;;6273959;22;43390;-71
2022/12/31 11:52:18;;;;;;;;;;;20.20;56.20;;;;;;6273004;22;43474;-71
2022/12/31 11:55:06;;;;;;;;;;;20.20;56.30;;;;;;6273804;22;44742;-71
2022/12/31 11:57:34;;;;;;;;;;;20.20;56.30;;;;;;6273306;22;43343;-71
2022/12/31 12:00:08;;;;;;;;;;;20.20;56.30;;;;;;6272647;22;43406;-71
2022/12/31 12:02:54;;;;;;;;;;;20.30;56.30;;;;;;6273734;22;43522;-71
2022/12/31 12:05:23;;;;;;;;;;;20.30;56.30;;;;;;6273663;22;43849;-70
2022/12/31 12:07:51;;;;;;;;;;;20.30;56.30;;;;;;6271821;22;44012;-70
2022/12/31 12:10:18;;;;;;;;;;;20.30;56.40;;;;;;6273178;22;43437;-71
2022/12/31 12:12:46;;;;;;;;;;;20.30;56.40;;;;;;6272771;22;43409;-71
2022/12/31 12:15:20;;;;;;;;;;;20.30;56.40;;;;;;6273401;22;43741;-71
2022/12/31 12:17:52;;;;;;;;;;;20.30;56.30;;;;;;6273694;22;43699;-71
2022/12/31 12:20:28;;;;;;;;;;;20.30;56.30;;;;;;6270062;22;43459;-71
2022/12/31 12:22:56;;;;;;;;;;;20.30;56.30;;;;;;6272994;22;43478;-71
2022/12/31 12:25:25;;;;;;;;;;;20.40;56.40;;;;;;6273573;22;44859;-71
2022/12/31 12:27:53;;;;;;;;;;;20.40;56.40;;;;;;6272168;22;43546;-71
2022/12/31 12:30:22;;;;;;;;;;;20.50;56.50;;;;;;6272850;22;43349;-73
2022/12/31 12:32:51;;;;;;;;;;;20.50;56.40;;;;;;6245490;22;43510;-73
2022/12/31 12:35:23;;;;;;;;;;;20.50;56.50;;;;;;6272880;22;43808;-74
2022/12/31 12:38:11;;;;;;;;;;;20.40;56.50;;;;;;6275414;22;43369;-75
2022/12/31 12:40:38;;;;;;;;;;;20.50;56.60;;;;;;6255181;22;43380;-75
2022/12/31 12:43:20;;;;;;;;;;;20.50;56.70;;;;;;6274326;22;43409;-74
2022/12/31 12:45:48;;;;;;;;;;;20.50;56.70;;;;;;6275992;22;43911;-75
2022/12/31 12:48:24;;;;;;;;;;;20.50;56.70;;;;;;6276047;22;43379;-74
2022/12/31 12:50:51;;;;;;;;;;;20.50;56.70;;;;;;6275431;22;43447;-74
2022/12/31 12:53:32;;;;;;;;;;;20.50;56.70;;;;;;6275315;22;43584;-74
2022/12/31 12:56:18;;;;;;;;;;;20.50;56.70;;;;;;6275344;22;43807;-74
2022/12/31 12:58:55;;;;;;;;;;;20.50;56.70;;;;;;6275805;22;43343;-75
2022/12/31 13:01:26;;;;;;;;;;;20.50;56.80;;;;;;6275587;22;43455;-75
2022/12/31 13:03:54;;;;;;;;;;;20.50;56.70;;;;;;6275094;22;43406;-74
2022/12/31 13:06:47;;;;;;;;;;;20.50;56.80;;;;;;6275529;22;43999;-75
2022/12/31 13:09:33;;;;;;;;;;;20.50;56.70;;;;;;6275293;22;43340;-75
2022/12/31 13:12:22;;;;;;;;;;;20.50;56.70;;;;;;6275939;22;43465;-71
2022/12/31 13:15:11;;;;;;;;;;;20.50;56.70;;;;;;6272865;22;43525;-71
2022/12/31 13:17:50;;;;;;;;;;;20.50;56.70;;;;;;6271217;22;44783;-72
2022/12/31 13:20:34;;;;;;;;;;;20.60;56.80;;;;;;6273889;22;43407;-72
2022/12/31 13:23:20;;;;;;;;;;;20.50;56.70;;;;;;6273325;22;44190;-72
2022/12/31 13:25:57;;;;;;;;;;;20.60;56.80;;;;;;6273541;22;43419;-72
2022/12/31 13:28:25;;;;;;;;;;;20.60;56.80;;;;;;6272854;22;43775;-71
2022/12/31 13:30:58;;;;;;;;;;;20.60;56.70;;;;;;6271391;22;43361;-71
2022/12/31 13:33:43;;;;;;;;;;;20.60;56.70;;;;;;6271279;22;43424;-72
2022/12/31 13:36:16;;;;;;;;;;;20.60;57.40;;;;;;6272941;22;43405;-71
2022/12/31 13:38:43;;;;;;;;;;;20.60;56.70;;;;;;6271816;22;44008;-71
2022/12/31 13:41:16;;;;;;;;;;;20.60;56.70;;;;;;6272858;22;43421;-71
2022/12/31 13:43:59;;;;;;;;;;;20.60;56.70;;;;;;6274000;22;43475;-71
2022/12/31 13:46:41;;;;;;;;;;;20.60;56.60;;;;;;6274215;22;43450;-72
2022/12/31 13:49:15;;;;;;;;;;;20.60;56.70;;;;;;6274303;22;43988;-72
2022/12/31 13:51:47;;;;;;;;;;;20.60;56.70;;;;;;6246490;22;43362;-72
2022/12/31 13:54:14;;;;;;;;;;;20.60;56.60;;;;;;6274546;22;43502;-72
2022/12/31 13:56:43;;;;;;;;;;;20.70;57.30;;;;;;6274682;22;43419;-72
2022/12/31 13:59:33;;;;;;;;;;;20.60;56.70;;;;;;6272925;22;43825;-72
2022/12/31 14:02:07;;;;;;;;;;;20.70;56.70;;;;;;6258544;22;43401;-71
2022/12/31 14:04:57;;;;;;;;;;;20.70;56.70;;;;;;6274577;22;43411;-72
2022/12/31 14:07:31;;;;;;;;;;;20.70;56.70;;;;;;6273945;22;43393;-71
2022/12/31 14:10:13;;;;;;;;;;;20.70;56.70;;;;;;6274551;22;45177;-71
2022/12/31 14:12:40;;;;;;;;;;;20.70;56.70;;;;;;6273529;22;43434;-70
2022/12/31 14:15:17;;;;;;;;;;;20.70;56.70;;;;;;6274416;22;43370;-71
2022/12/31 14:17:47;;;;;;;;;;;20.70;56.70;;;;;;6274038;22;43403;-72
2022/12/31 14:20:14;;;;;;;;;;;20.70;56.70;;;;;;6245861;22;43871;-71
2022/12/31 14:22:48;;;;;;;;;;;20.70;56.70;;;;;;6273757;22;43495;-72
2022/12/31 14:25:19;;;;;;;;;;;20.70;57.30;;;;;;6274643;22;43418;-68
2022/12/31 14:27:47;;;;;;;;;;;20.70;56.70;;;;;;6273923;22;43440;-72
2022/12/31 14:30:16;;;;;;;;;;;20.70;56.60;;;;;;6274271;22;44770;-72
2022/12/31 14:32:50;;;;;;;;;;;20.70;56.60;;;;;;6273377;22;43338;-72
2022/12/31 14:35:35;;;;;;;;;;;20.70;56.60;;;;;;6273569;22;43428;-72
2022/12/31 14:38:15;;;;;;;;;;;20.70;56.60;;;;;;6273905;22;43400;-72
2022/12/31 14:41:01;;;;;;;;;;;20.70;56.70;;;;;;6272990;22;43997;-73
2022/12/31 14:43:42;;;;;;;;;;;20.70;56.60;;;;;;6274044;22;43408;-74
2022/12/31 14:46:29;;;;;;;;;;;20.70;56.70;;;;;;6274528;22;43353;-70
2022/12/31 14:49:06;;;;;;;;;;;20.70;56.90;;;;;;6246605;22;43463;-69
2022/12/31 14:51:34;;;;;;;;;;;20.70;57.10;;;;;;6274496;22;43997;-68
2022/12/31 14:54:01;;;;;;;;;;;20.70;56.90;;;;;;6272963;22;43372;-68